createdAt,value
2023-03-11T00:02:49.295Z,86
2023-03-11T00:06:14.538Z,87
2023-03-11T00:09:40.422Z,86
2023-03-11T00:13:05.665Z,86
2023-03-11T00:16:30.889Z,85
2023-03-11T00:19:56.115Z,85
2023-03-11T00:23:21.314Z,86
2023-03-11T00:26:46.561Z,86
2023-03-11T00:30:11.858Z,86
2023-03-11T00:33:37.060Z,87
2023-03-11T00:37:02.322Z,86
2023-03-11T00:40:27.589Z,86
2023-03-11T00:43:52.802Z,86
2023-03-11T00:47:18.040Z,85
2023-03-11T00:50:43.274Z,85
2023-03-11T00:54:09.260Z,85
2023-03-11T00:57:34.462Z,85
2023-03-11T01:00:59.772Z,85
2023-03-11T01:04:25.011Z,86
2023-03-11T01:07:50.183Z,86
2023-03-11T01:11:15.417Z,85
2023-03-11T01:14:40.648Z,84
2023-03-11T01:18:05.886Z,84
2023-03-11T01:21:31.125Z,84
2023-03-11T01:24:56.342Z,84
2023-03-11T01:28:21.550Z,83
2023-03-11T01:31:46.809Z,82
2023-03-11T01:35:12.043Z,81
2023-03-11T01:38:37.314Z,81
2023-03-11T01:42:02.522Z,82
2023-03-11T01:45:27.780Z,82
2023-03-11T01:48:53.008Z,82
2023-03-11T01:52:18.239Z,81
2023-03-11T01:55:43.500Z,81
2023-03-11T01:59:08.741Z,81
2023-03-11T02:02:34.018Z,80
2023-03-11T02:05:59.219Z,80
2023-03-11T02:09:24.479Z,80
2023-03-11T02:12:49.777Z,81
2023-03-11T02:16:15.064Z,80
2023-03-11T02:19:40.259Z,79
2023-03-11T02:23:05.520Z,80
2023-03-11T02:26:30.773Z,81
2023-03-11T02:29:56.137Z,81
2023-03-11T02:33:21.283Z,81
2023-03-11T02:36:46.549Z,81
2023-03-11T02:40:11.838Z,80
2023-03-11T02:43:37.086Z,79
2023-03-11T02:47:02.510Z,79
2023-03-11T02:50:27.663Z,78
2023-03-11T02:53:52.958Z,78
2023-03-11T02:57:18.218Z,78
2023-03-11T03:00:43.610Z,77
2023-03-11T03:04:08.838Z,77
2023-03-11T03:07:34.052Z,76
2023-03-11T03:10:59.350Z,77
2023-03-11T03:14:24.630Z,76
2023-03-11T03:17:49.924Z,77
2023-03-11T03:21:15.216Z,76
2023-03-11T03:24:40.441Z,76
2023-03-11T03:28:05.701Z,76
2023-03-11T03:31:31.002Z,77
2023-03-11T03:34:56.293Z,76
2023-03-11T03:38:21.595Z,76
2023-03-11T03:41:46.845Z,76
2023-03-11T03:45:12.104Z,76
2023-03-11T03:48:37.330Z,76
2023-03-11T03:52:02.578Z,76
2023-03-11T03:55:27.878Z,77
2023-03-11T03:58:53.110Z,77
2023-03-11T04:02:18.382Z,76
2023-03-11T04:05:43.632Z,76
2023-03-11T04:09:08.866Z,77
2023-03-11T04:12:34.163Z,76
2023-03-11T04:15:59.406Z,77
2023-03-11T04:19:24.684Z,76
2023-03-11T04:22:49.929Z,76
2023-03-11T04:26:15.208Z,75
2023-03-11T04:29:40.481Z,75
2023-03-11T04:33:05.708Z,75
2023-03-11T04:36:30.957Z,75
2023-03-11T04:39:56.208Z,74
2023-03-11T04:43:21.478Z,75
2023-03-11T04:46:46.770Z,74
2023-03-11T04:50:11.971Z,75
2023-03-11T04:53:37.202Z,75
2023-03-11T04:57:02.446Z,75
2023-03-11T05:00:27.704Z,75
2023-03-11T05:03:52.985Z,76
2023-03-11T05:07:18.223Z,76
2023-03-11T05:10:43.474Z,76
2023-03-11T05:14:08.767Z,77
2023-03-11T05:17:34.068Z,77
2023-03-11T05:20:59.401Z,77
2023-03-11T05:24:24.670Z,76
2023-03-11T05:27:49.945Z,75
2023-03-11T05:31:15.236Z,75
2023-03-11T05:34:40.480Z,76
2023-03-11T05:38:05.751Z,76
2023-03-11T05:41:30.995Z,77
2023-03-11T05:44:56.260Z,78
2023-03-11T05:48:21.495Z,78
2023-03-11T05:51:46.723Z,77
2023-03-11T05:55:11.956Z,78
2023-03-11T05:58:37.118Z,78
2023-03-11T06:02:02.323Z,76
2023-03-11T06:05:27.569Z,75
2023-03-11T06:08:52.704Z,75
2023-03-11T06:12:17.985Z,75
2023-03-11T06:15:43.123Z,76
2023-03-11T06:19:08.350Z,75
2023-03-11T06:22:33.569Z,76
2023-03-11T06:25:58.797Z,75
2023-03-11T06:29:24.035Z,75
2023-03-11T06:32:49.326Z,75
2023-03-11T06:36:14.428Z,75
2023-03-11T06:39:39.651Z,73
2023-03-11T06:43:04.886Z,74
2023-03-11T06:46:30.233Z,74
2023-03-11T06:49:55.420Z,75
2023-03-11T06:53:20.603Z,74
2023-03-11T06:56:45.788Z,75
2023-03-11T07:00:10.992Z,75
2023-03-11T07:03:36.221Z,74
2023-03-11T07:07:01.852Z,74
2023-03-11T07:10:27.045Z,75
2023-03-11T07:13:52.258Z,76
2023-03-11T07:17:17.766Z,76
2023-03-11T07:20:42.674Z,77
2023-03-11T07:24:07.844Z,76
2023-03-11T07:27:33.054Z,75
2023-03-11T07:30:58.244Z,76
2023-03-11T07:34:23.446Z,76
2023-03-11T07:37:48.701Z,75
2023-03-11T07:41:14.172Z,76
2023-03-11T07:44:39.092Z,76
2023-03-11T07:48:04.283Z,76
2023-03-11T07:51:29.503Z,76
2023-03-11T07:54:54.862Z,76
2023-03-11T07:58:19.950Z,78
2023-03-11T08:01:45.254Z,77
2023-03-11T08:05:10.574Z,77
2023-03-11T08:08:35.816Z,78
2023-03-11T08:12:01.069Z,78
2023-03-11T08:15:26.403Z,78
2023-03-11T08:18:51.503Z,78
2023-03-11T08:22:16.749Z,78
2023-03-11T08:25:42.009Z,78
2023-03-11T08:29:07.215Z,77
2023-03-11T08:32:32.481Z,77
2023-03-11T08:35:57.716Z,77
2023-03-11T08:39:22.909Z,76
2023-03-11T08:42:48.162Z,76
2023-03-11T08:46:13.470Z,75
2023-03-11T08:49:38.672Z,76
2023-03-11T08:53:03.934Z,77
2023-03-11T08:56:29.225Z,78
2023-03-11T08:59:54.448Z,77
2023-03-11T09:03:19.748Z,76
2023-03-11T09:06:44.944Z,76
2023-03-11T09:10:10.157Z,74
2023-03-11T09:13:35.376Z,76
2023-03-11T09:17:00.619Z,72
2023-03-11T09:20:25.950Z,71
2023-03-11T15:04:12.741Z,69
2023-03-11T15:07:37.913Z,69
2023-03-11T15:11:03.546Z,68
2023-03-11T15:14:28.333Z,68
2023-03-11T15:17:53.545Z,68
2023-03-11T15:21:18.746Z,69
2023-03-11T15:24:43.917Z,69
2023-03-11T15:28:09.101Z,69
2023-03-11T15:31:34.309Z,68
2023-03-11T15:34:59.536Z,66
2023-03-11T15:38:24.791Z,66
2023-03-11T15:41:49.938Z,67
2023-03-11T15:45:15.134Z,66
2023-03-11T15:48:40.331Z,65
2023-03-11T15:52:05.523Z,65
2023-03-11T15:55:30.739Z,64
2023-03-11T15:58:55.941Z,66
2023-03-11T16:02:21.145Z,66
2023-03-11T16:05:46.353Z,66
2023-03-11T16:09:11.525Z,67
2023-03-11T16:12:36.758Z,65
2023-03-11T16:16:04.218Z,66
2023-03-11T16:19:27.156Z,65
2023-03-11T16:22:52.379Z,64
2023-03-11T16:26:17.649Z,65
2023-03-11T16:29:42.844Z,67
2023-03-11T16:33:08.027Z,67
2023-03-11T16:36:33.737Z,66
2023-03-11T16:39:58.955Z,66
2023-03-11T16:43:24.157Z,67
2023-03-11T16:46:49.424Z,66
2023-03-11T16:50:14.550Z,65
2023-03-11T16:53:39.754Z,65
2023-03-11T16:57:04.972Z,67
2023-03-11T17:00:30.338Z,66
2023-03-11T17:03:55.447Z,66
2023-03-11T17:07:20.880Z,67
2023-03-11T17:10:46.050Z,66
2023-03-11T17:14:16.501Z,68
2023-03-11T17:17:36.453Z,69
2023-03-11T17:21:01.689Z,66
2023-03-11T17:24:26.860Z,66
2023-03-11T17:27:52.056Z,66
2023-03-11T17:31:17.328Z,66
2023-03-11T17:34:42.445Z,66
2023-03-11T17:38:07.727Z,66
2023-03-11T17:41:32.900Z,67
2023-03-11T17:44:58.104Z,67
2023-03-11T17:48:23.303Z,67
2023-03-11T17:51:48.510Z,67
2023-03-11T17:55:13.737Z,68
2023-03-11T17:58:38.896Z,68
2023-03-11T18:02:04.131Z,68
2023-03-11T18:05:29.318Z,69
2023-03-11T18:08:54.523Z,69
2023-03-11T18:12:19.735Z,70
2023-03-11T18:15:44.891Z,71
2023-03-11T18:19:10.134Z,70
2023-03-11T18:22:35.608Z,70
2023-03-11T18:26:00.522Z,72
2023-03-11T18:29:25.781Z,73
2023-03-11T18:32:51.064Z,73
2023-03-11T18:36:16.236Z,73
2023-03-11T18:39:41.450Z,74
2023-03-11T18:43:06.653Z,74
2023-03-11T18:46:31.917Z,73
2023-03-11T18:49:57.143Z,74
2023-03-11T18:53:22.364Z,74
2023-03-11T18:56:47.577Z,74
2023-03-11T19:00:12.754Z,74
2023-03-11T19:03:37.989Z,75
2023-03-11T19:07:04.177Z,76
2023-03-11T19:10:29.795Z,75
2023-03-11T19:13:55.044Z,75
2023-03-11T19:17:20.978Z,75
2023-03-11T19:20:46.205Z,75
2023-03-11T19:24:11.373Z,74
2023-03-11T19:27:36.563Z,75
2023-03-11T19:31:01.868Z,75
2023-03-11T19:34:26.987Z,75
2023-03-11T19:37:52.185Z,75
2023-03-11T19:41:17.366Z,76
2023-03-11T19:44:42.571Z,76
2023-03-11T19:48:07.775Z,76
2023-03-11T19:51:46.804Z,75
2023-03-11T19:54:58.180Z,74
2023-03-11T19:58:23.390Z,75
2023-03-11T20:01:48.616Z,75
2023-03-11T20:05:13.833Z,75
2023-03-11T20:08:39.011Z,75
2023-03-11T20:12:04.220Z,75
2023-03-11T20:15:29.398Z,75
2023-03-11T20:18:54.604Z,74
2023-03-11T20:22:19.859Z,74
2023-03-11T20:25:44.986Z,74
2023-03-11T20:29:10.263Z,74
2023-03-11T20:32:35.431Z,73
2023-03-11T20:36:00.684Z,73
2023-03-11T20:39:25.764Z,73
2023-03-11T20:42:50.982Z,73
2023-03-11T20:46:16.262Z,75
2023-03-11T20:49:41.413Z,75
2023-03-11T20:53:06.622Z,72
2023-03-11T20:56:31.880Z,73
2023-03-11T20:59:57.018Z,75
2023-03-11T21:03:22.308Z,76
2023-03-11T21:06:47.422Z,77
2023-03-11T21:10:12.709Z,77
2023-03-11T21:13:37.855Z,76
2023-03-11T21:17:03.049Z,75
2023-03-11T21:20:28.287Z,75
2023-03-11T21:23:53.509Z,76
2023-03-11T21:27:18.673Z,75
2023-03-11T21:30:43.870Z,75
2023-03-11T21:34:08.984Z,75
2023-03-11T21:37:34.241Z,76
2023-03-11T21:40:59.490Z,77
2023-03-11T21:44:24.622Z,75
2023-03-11T21:47:49.847Z,75
2023-03-11T21:51:15.086Z,74
2023-03-11T21:54:40.377Z,74
2023-03-11T21:58:05.525Z,75
2023-03-11T22:01:30.716Z,74
2023-03-11T22:04:55.975Z,74
2023-03-11T22:08:21.115Z,73
2023-03-11T22:11:46.436Z,72
2023-03-11T22:15:11.532Z,72
2023-03-11T22:18:36.783Z,72
2023-03-11T22:22:01.854Z,72
2023-03-11T22:25:27.009Z,73
2023-03-11T22:28:52.250Z,73
2023-03-11T22:32:17.446Z,73
2023-03-11T22:35:42.690Z,73
2023-03-11T22:39:07.840Z,74
2023-03-11T22:42:33.027Z,74
2023-03-11T22:45:59.287Z,75
2023-03-11T22:49:23.414Z,75
2023-03-11T22:52:48.599Z,75
2023-03-11T22:56:13.813Z,75
2023-03-11T22:59:39.016Z,74
2023-03-11T23:03:04.264Z,75
2023-03-11T23:06:29.408Z,75
2023-03-11T23:09:54.630Z,75
2023-03-11T23:13:19.821Z,74
2023-03-11T23:16:45.048Z,74
2023-03-11T23:20:10.251Z,74
2023-03-11T23:23:35.416Z,74
2023-03-11T23:27:00.640Z,74
2023-03-11T23:30:25.832Z,74
2023-03-11T23:33:51.007Z,74
2023-03-11T23:37:16.231Z,74
2023-03-11T23:40:41.439Z,74
2023-03-11T23:44:06.642Z,74
2023-03-11T23:47:31.864Z,74
2023-03-11T23:50:57.058Z,74
2023-03-11T23:54:22.283Z,74
2023-03-11T23:57:47.426Z,74
